Time;durP1;ratioP1;P1;durP2;ratioP2;P2;SDS_P1;SDS_P2;PMS_P1;PMS_P2;Temp;Humidity;BMP_temperature;BMP_pressure;BME280_temperature;BME280_humidity;BME280_pressure;Samples;Min_cycle;Max_cycle;Signal;HPM_P1;HPM_P2
2024/01/19 00:00:15;;;;;;;5.15;3.33;;;;;;;;;;5050766;28;20037;-66
2024/01/19 00:02:41;;;;;;;9.55;3.17;;;;;;;;;;5051091;28;20048;-66
2024/01/19 00:05:06;;;;;;;4.60;3.63;;;;;;;;;;5050484;28;20037;-67
2024/01/19 00:07:32;;;;;;;4.35;2.47;;;;;;;;;;5050793;28;20032;-66
2024/01/19 00:09:57;;;;;;;10.55;3.10;;;;;;;;;;5050593;28;20033;-66
2024/01/19 00:12:22;;;;;;;5.28;3.35;;;;;;;;;;5051076;28;20039;-66
2024/01/19 00:14:47;;;;;;;8.95;4.13;;;;;;;;;;5050506;28;20396;-66
2024/01/19 00:17:13;;;;;;;6.20;3.38;;;;;;;;;;5050620;28;20231;-67
2024/01/19 00:19:38;;;;;;;6.53;2.58;;;;;;;;;;5050269;28;20571;-68
2024/01/19 00:22:04;;;;;;;5.75;3.47;;;;;;;;;;5050950;28;20457;-66
2024/01/19 00:24:29;;;;;;;5.95;3.83;;;;;;;;;;5048246;28;20512;-68
2024/01/19 00:26:55;;;;;;;3.75;2.60;;;;;;;;;;5049518;28;20071;-67
2024/01/19 00:29:20;;;;;;;4.15;2.88;;;;;;;;;;5050697;28;20049;-67
2024/01/19 00:31:47;;;;;;;6.93;2.60;;;;;;;;;;5050148;28;20112;-67
2024/01/19 00:34:13;;;;;;;15.10;3.17;;;;;;;;;;5050378;28;20477;-66
2024/01/19 00:36:38;;;;;;;5.85;2.17;;;;;;;;;;5048863;28;20120;-67
2024/01/19 00:39:04;;;;;;;4.88;2.90;;;;;;;;;;5050259;28;20072;-67
2024/01/19 00:41:29;;;;;;;9.35;3.72;;;;;;;;;;5050214;28;20037;-68
2024/01/19 00:43:55;;;;;;;5.40;3.05;;;;;;;;;;5050101;28;20086;-66
2024/01/19 00:46:20;;;;;;;3.28;2.28;;;;;;;;;;5050055;28;20047;-67
2024/01/19 00:48:45;;;;;;;8.25;4.32;;;;;;;;;;5050008;28;20037;-68
2024/01/19 00:51:11;;;;;;;5.25;3.70;;;;;;;;;;5047388;28;20044;-67
2024/01/19 00:53:36;;;;;;;6.65;3.05;;;;;;;;;;5081778;28;20427;-66
2024/01/19 00:56:03;;;;;;;10.98;2.83;;;;;;;;;;5064952;28;20120;-66
2024/01/19 00:58:29;;;;;;;5.53;3.08;;;;;;;;;;5049017;28;20396;-66
2024/01/19 01:00:56;;;;;;;11.85;3.13;;;;;;;;;;5049585;28;20037;-67
2024/01/19 01:03:26;;;;;;;5.63;2.25;;;;;;;;;;5081138;28;20037;-66
2024/01/19 01:05:56;;;;;;;5.55;2.20;;;;;;;;;;5050138;28;20071;-66
2024/01/19 01:08:22;;;;;;;4.30;2.58;;;;;;;;;;5049632;28;20127;-66
2024/01/19 01:10:48;;;;;;;2.72;1.67;;;;;;;;;;5048537;28;20044;-67
2024/01/19 01:13:14;;;;;;;2.65;1.75;;;;;;;;;;5050273;28;20032;-67
2024/01/19 01:15:40;;;;;;;7.75;1.48;;;;;;;;;;5049842;28;20040;-67
2024/01/19 01:18:06;;;;;;;1.70;1.33;;;;;;;;;;5081934;28;20059;-67
2024/01/19 01:20:31;;;;;;;1.83;1.23;;;;;;;;;;5050042;28;20037;-67
2024/01/19 01:22:56;;;;;;;4.40;2.42;;;;;;;;;;5050066;28;20044;-66
2024/01/19 01:25:22;;;;;;;2.90;1.98;;;;;;;;;;5049567;28;20033;-66
2024/01/19 01:27:47;;;;;;;5.25;1.83;;;;;;;;;;5050210;28;20029;-65
2024/01/19 01:30:12;;;;;;;1.95;1.30;;;;;;;;;;5055716;28;20540;-66
2024/01/19 01:32:38;;;;;;;2.13;1.88;;;;;;;;;;5049727;28;20450;-66
2024/01/19 01:35:04;;;;;;;2.40;1.58;;;;;;;;;;5049731;28;20040;-67
2024/01/19 01:37:30;;;;;;;7.00;1.63;;;;;;;;;;5046154;28;20037;-66
2024/01/19 01:39:55;;;;;;;2.10;1.73;;;;;;;;;;5049393;28;20044;-65
2024/01/19 01:42:21;;;;;;;6.10;2.80;;;;;;;;;;5049166;28;20041;-64
2024/01/19 01:44:47;;;;;;;5.82;2.63;;;;;;;;;;5049687;28;20033;-65
2024/01/19 01:47:12;;;;;;;2.20;0.98;;;;;;;;;;5049561;28;20041;-65
2024/01/19 01:49:38;;;;;;;1.95;1.60;;;;;;;;;;5049396;28;20021;-64
2024/01/19 01:52:03;;;;;;;2.05;1.30;;;;;;;;;;5048767;28;20135;-67
2024/01/19 01:54:29;;;;;;;3.08;1.73;;;;;;;;;;5047203;28;20432;-67
2024/01/19 01:56:54;;;;;;;3.08;1.92;;;;;;;;;;5049424;28;20056;-65
2024/01/19 01:59:20;;;;;;;2.80;1.92;;;;;;;;;;5049663;28;20040;-66
2024/01/19 02:01:46;;;;;;;6.22;2.25;;;;;;;;;;5048097;28;20064;-66
2024/01/19 02:04:12;;;;;;;3.08;1.63;;;;;;;;;;5050509;28;20560;-68
2024/01/19 02:06:38;;;;;;;3.22;1.98;;;;;;;;;;5053061;28;20111;-67
2024/01/19 02:09:05;;;;;;;3.45;1.65;;;;;;;;;;5052892;28;20045;-67
2024/01/19 02:11:30;;;;;;;3.20;1.48;;;;;;;;;;5053041;28;20059;-66
2024/01/19 02:13:56;;;;;;;3.05;2.33;;;;;;;;;;5068122;28;20126;-66
2024/01/19 02:16:21;;;;;;;9.75;1.15;;;;;;;;;;5053327;28;20044;-66
2024/01/19 02:18:46;;;;;;;2.25;1.52;;;;;;;;;;5052739;28;20048;-66
2024/01/19 02:21:12;;;;;;;8.10;2.22;;;;;;;;;;5052813;28;20052;-64
2024/01/19 02:23:46;;;;;;;2.45;1.55;;;;;;;;;;5053058;28;20041;-64
2024/01/19 02:26:11;;;;;;;5.60;2.08;;;;;;;;;;5084838;28;20047;-64
2024/01/19 02:28:36;;;;;;;2.33;1.85;;;;;;;;;;5052872;28;20036;-66
2024/01/19 02:31:02;;;;;;;4.63;3.08;;;;;;;;;;5052724;28;20137;-66
2024/01/19 02:33:27;;;;;;;12.80;5.00;;;;;;;;;;5050116;28;20055;-66
2024/01/19 02:35:52;;;;;;;10.95;5.32;;;;;;;;;;5052640;28;20051;-66
2024/01/19 02:38:18;;;;;;;7.72;5.35;;;;;;;;;;5052794;28;20033;-65
2024/01/19 02:40:43;;;;;;;6.10;3.40;;;;;;;;;;5052207;28;20033;-66
2024/01/19 02:43:08;;;;;;;9.15;3.28;;;;;;;;;;5051614;28;20021;-65
2024/01/19 02:45:34;;;;;;;3.72;2.15;;;;;;;;;;5052461;28;20461;-65
2024/01/19 02:47:59;;;;;;;2.40;1.63;;;;;;;;;;5046999;28;20489;-65
2024/01/19 02:50:24;;;;;;;4.20;2.75;;;;;;;;;;5052104;28;20033;-65
2024/01/19 02:52:50;;;;;;;3.00;1.60;;;;;;;;;;5052910;28;20392;-65
2024/01/19 02:55:15;;;;;;;7.75;2.70;;;;;;;;;;5051733;28;20465;-66
2024/01/19 02:57:40;;;;;;;2.65;2.03;;;;;;;;;;5052485;28;20477;-67
2024/01/19 03:00:07;;;;;;;7.60;1.65;;;;;;;;;;5051574;28;20063;-66
2024/01/19 03:02:33;;;;;;;1.58;1.23;;;;;;;;;;5051069;28;20033;-66
2024/01/19 03:04:58;;;;;;;5.45;1.60;;;;;;;;;;5051772;28;20028;-65
2024/01/19 03:07:23;;;;;;;1.20;0.80;;;;;;;;;;5052913;28;20033;-66
2024/01/19 03:09:49;;;;;;;1.88;1.67;;;;;;;;;;5051616;28;20032;-66
2024/01/19 03:12:14;;;;;;;3.65;2.38;;;;;;;;;;5052297;28;20469;-65
2024/01/19 03:14:39;;;;;;;6.40;2.05;;;;;;;;;;5051249;28;20040;-67
2024/01/19 03:17:05;;;;;;;10.80;1.65;;;;;;;;;;5084318;28;20124;-66
2024/01/19 03:19:31;;;;;;;2.10;1.20;;;;;;;;;;5051329;28;20130;-66
2024/01/19 03:21:57;;;;;;;3.15;1.15;;;;;;;;;;5051701;28;20033;-66
2024/01/19 03:24:22;;;;;;;2.13;1.42;;;;;;;;;;5051414;28;20473;-66
2024/01/19 03:26:48;;;;;;;2.13;1.08;;;;;;;;;;5051682;28;20614;-67
2024/01/19 03:29:13;;;;;;;3.83;2.13;;;;;;;;;;5060589;28;20091;-66
2024/01/19 03:31:38;;;;;;;2.58;1.90;;;;;;;;;;5051526;28;20045;-66
2024/01/19 03:34:04;;;;;;;1.42;1.13;;;;;;;;;;5051411;28;20060;-66
2024/01/19 03:36:29;;;;;;;2.10;1.33;;;;;;;;;;5051502;28;20492;-66
2024/01/19 03:38:54;;;;;;;0.88;0.77;;;;;;;;;;5051167;28;20063;-67
2024/01/19 03:41:20;;;;;;;2.08;1.58;;;;;;;;;;5050857;28;20037;-66
2024/01/19 03:43:45;;;;;;;1.27;0.98;;;;;;;;;;5051562;28;20123;-67
2024/01/19 03:46:10;;;;;;;3.58;2.50;;;;;;;;;;5051405;28;20045;-66
2024/01/19 03:48:36;;;;;;;1.00;0.90;;;;;;;;;;5049122;28;20029;-67
2024/01/19 03:51:01;;;;;;;2.30;1.05;;;;;;;;;;5051253;28;20190;-67
2024/01/19 03:53:26;;;;;;;3.42;1.30;;;;;;;;;;5051524;28;20425;-66
2024/01/19 03:55:52;;;;;;;0.85;0.77;;;;;;;;;;5050536;28;20604;-66
2024/01/19 03:58:17;;;;;;;3.92;1.95;;;;;;;;;;5051298;28;20123;-67
2024/01/19 04:00:42;;;;;;;6.10;1.52;;;;;;;;;;5051035;28;20045;-67
2024/01/19 04:03:08;;;;;;;1.48;1.27;;;;;;;;;;5050989;28;20052;-66
2024/01/19 04:05:33;;;;;;;4.78;1.15;;;;;;;;;;5050838;28;20051;-66
2024/01/19 04:07:58;;;;;;;6.03;0.80;;;;;;;;;;5050959;28;20615;-66
2024/01/19 04:10:24;;;;;;;1.92;1.55;;;;;;;;;;5050410;28;20041;-66
2024/01/19 04:12:51;;;;;;;1.42;1.05;;;;;;;;;;5050659;28;20037;-67
2024/01/19 04:15:17;;;;;;;1.08;0.98;;;;;;;;;;5082854;28;20118;-67
2024/01/19 04:17:42;;;;;;;2.28;1.50;;;;;;;;;;5050729;28;20476;-66
2024/01/19 04:20:08;;;;;;;7.72;0.93;;;;;;;;;;5050499;28;20040;-67
2024/01/19 04:22:33;;;;;;;1.13;0.57;;;;;;;;;;5050706;28;20116;-66
2024/01/19 04:24:58;;;;;;;1.60;1.10;;;;;;;;;;5050242;28;20025;-68
2024/01/19 04:27:24;;;;;;;0.65;0.50;;;;;;;;;;5082182;28;20124;-67
2024/01/19 04:29:49;;;;;;;1.05;0.95;;;;;;;;;;5050373;28;20116;-66
2024/01/19 04:32:14;;;;;;;2.38;1.35;;;;;;;;;;5050420;28;20105;-67
2024/01/19 04:34:39;;;;;;;6.43;1.67;;;;;;;;;;5082347;28;20128;-66
2024/01/19 04:37:05;;;;;;;2.13;1.23;;;;;;;;;;5050405;28;20139;-67
2024/01/19 04:39:30;;;;;;;2.53;1.30;;;;;;;;;;5050531;28;20032;-66
2024/01/19 04:41:55;;;;;;;1.25;1.15;;;;;;;;;;5050388;28;20037;-67
2024/01/19 04:44:21;;;;;;;1.48;1.27;;;;;;;;;;5050541;28;20043;-68
2024/01/19 04:46:46;;;;;;;1.05;0.95;;;;;;;;;;5050122;28;20037;-67
2024/01/19 04:49:11;;;;;;;1.63;1.33;;;;;;;;;;5049996;28;20068;-67
2024/01/19 04:51:37;;;;;;;1.30;1.17;;;;;;;;;;5050248;28;20040;-66
2024/01/19 04:54:02;;;;;;;1.85;0.90;;;;;;;;;;5050309;28;20025;-66
2024/01/19 04:56:28;;;;;;;1.27;0.90;;;;;;;;;;5049830;28;20076;-66
2024/01/19 04:58:53;;;;;;;0.60;0.57;;;;;;;;;;5050427;28;20045;-67
2024/01/19 05:01:18;;;;;;;1.02;1.00;;;;;;;;;;5049921;28;20032;-68
2024/01/19 05:03:44;;;;;;;2.38;1.30;;;;;;;;;;5050130;28;20037;-66
2024/01/19 05:06:13;;;;;;;2.85;1.67;;;;;;;;;;5050285;28;20401;-65
2024/01/19 05:08:39;;;;;;;1.13;1.00;;;;;;;;;;5049929;28;20044;-67
2024/01/19 05:11:04;;;;;;;1.13;0.95;;;;;;;;;;5049165;28;20048;-66
2024/01/19 05:13:29;;;;;;;1.40;1.30;;;;;;;;;;5050322;28;20037;-66
2024/01/19 05:15:54;;;;;;;2.78;1.13;;;;;;;;;;5050102;28;20039;-66
2024/01/19 05:18:21;;;;;;;5.45;1.42;;;;;;;;;;5049349;28;20064;-66
2024/01/19 05:20:46;;;;;;;1.55;1.35;;;;;;;;;;5049782;28;20037;-67
2024/01/19 05:23:11;;;;;;;1.33;1.00;;;;;;;;;;5050092;28;20032;-66
2024/01/19 05:25:37;;;;;;;1.10;0.82;;;;;;;;;;5049247;28;20362;-65
2024/01/19 05:28:02;;;;;;;4.70;1.70;;;;;;;;;;5052240;28;20404;-66
2024/01/19 05:30:28;;;;;;;0.98;0.70;;;;;;;;;;5056443;28;20365;-67
2024/01/19 05:32:53;;;;;;;1.70;1.02;;;;;;;;;;5049608;28;20040;-66
2024/01/19 05:35:19;;;;;;;0.73;0.73;;;;;;;;;;5049824;28;20090;-66
2024/01/19 05:37:44;;;;;;;6.80;2.22;;;;;;;;;;5050056;28;20380;-66
2024/01/19 05:40:10;;;;;;;3.65;0.82;;;;;;;;;;5052584;28;20439;-67
2024/01/19 05:42:35;;;;;;;0.50;0.50;;;;;;;;;;5053612;28;20039;-65
2024/01/19 05:45:00;;;;;;;1.52;1.00;;;;;;;;;;5053329;28;20051;-66
2024/01/19 05:47:26;;;;;;;2.40;1.17;;;;;;;;;;5053445;28;20041;-66
2024/01/19 05:49:51;;;;;;;5.47;1.02;;;;;;;;;;5052826;28;20437;-66
2024/01/19 05:52:18;;;;;;;1.92;1.00;;;;;;;;;;5051540;28;20575;-67
2024/01/19 05:54:43;;;;;;;4.07;1.20;;;;;;;;;;5053257;28;20554;-66
2024/01/19 05:57:09;;;;;;;0.73;0.57;;;;;;;;;;5053124;28;20041;-67
2024/01/19 05:59:38;;;;;;;4.22;1.67;;;;;;;;;;5053466;28;20071;-66
2024/01/19 06:02:06;;;;;;;2.00;0.95;;;;;;;;;;5050339;28;20045;-66
2024/01/19 06:04:37;;;;;;;1.98;0.80;;;;;;;;;;5052915;28;20041;-65
2024/01/19 06:07:03;;;;;;;0.85;0.60;;;;;;;;;;5053140;28;20025;-66
2024/01/19 06:09:28;;;;;;;3.47;1.55;;;;;;;;;;5053061;28;20060;-66
2024/01/19 06:11:54;;;;;;;1.17;0.82;;;;;;;;;;5053150;28;20439;-67
2024/01/19 06:14:19;;;;;;;0.77;0.77;;;;;;;;;;5085497;28;20121;-66
2024/01/19 06:16:45;;;;;;;1.05;0.95;;;;;;;;;;5052944;28;20514;-66
2024/01/19 06:19:10;;;;;;;1.13;0.85;;;;;;;;;;5052744;28;20052;-67
2024/01/19 06:21:35;;;;;;;3.47;1.20;;;;;;;;;;5052698;28;20033;-65
2024/01/19 06:24:01;;;;;;;0.60;0.50;;;;;;;;;;5053198;28;20037;-66
2024/01/19 06:26:32;;;;;;;0.95;0.70;;;;;;;;;;5052643;28;20047;-66
2024/01/19 06:28:58;;;;;;;2.50;0.85;;;;;;;;;;5051652;28;20350;-66
2024/01/19 06:31:23;;;;;;;0.65;0.65;;;;;;;;;;5052743;28;20063;-66
2024/01/19 06:33:48;;;;;;;3.13;0.85;;;;;;;;;;5052500;28;20383;-65
2024/01/19 06:36:14;;;;;;;0.85;0.50;;;;;;;;;;5052680;28;20079;-66
2024/01/19 06:38:39;;;;;;;1.08;0.82;;;;;;;;;;5052341;28;20041;-66
2024/01/19 06:41:04;;;;;;;0.60;0.57;;;;;;;;;;5052293;28;20051;-66
2024/01/19 06:43:30;;;;;;;1.25;0.95;;;;;;;;;;5052216;28;20029;-67
2024/01/19 06:45:55;;;;;;;0.65;0.52;;;;;;;;;;5051578;28;20033;-66
2024/01/19 06:48:21;;;;;;;1.58;1.08;;;;;;;;;;5052168;28;20037;-69
2024/01/19 06:50:46;;;;;;;4.22;1.58;;;;;;;;;;5051851;28;20116;-66
2024/01/19 06:53:11;;;;;;;1.08;0.60;;;;;;;;;;5052631;28;20116;-66
2024/01/19 06:55:37;;;;;;;0.70;0.70;;;;;;;;;;5052553;28;20112;-66
2024/01/19 06:58:02;;;;;;;1.65;0.93;;;;;;;;;;5052330;28;20140;-67
2024/01/19 07:00:27;;;;;;;6.97;0.88;;;;;;;;;;5052203;28;20036;-66
2024/01/19 07:02:54;;;;;;;0.90;0.80;;;;;;;;;;5052297;28;20041;-67
2024/01/19 07:05:19;;;;;;;0.50;0.50;;;;;;;;;;5051645;28;20055;-66
2024/01/19 07:07:45;;;;;;;1.30;1.08;;;;;;;;;;5050674;28;20060;-66
2024/01/19 07:10:10;;;;;;;1.05;0.95;;;;;;;;;;5052240;28;20120;-67
2024/01/19 07:12:35;;;;;;;1.13;0.80;;;;;;;;;;5051952;28;20104;-66
2024/01/19 07:15:01;;;;;;;1.95;0.68;;;;;;;;;;5052166;28;20036;-66
2024/01/19 07:17:26;;;;;;;0.60;0.60;;;;;;;;;;5051366;28;20033;-66
2024/01/19 07:19:51;;;;;;;1.27;0.88;;;;;;;;;;5051418;28;20036;-65
2024/01/19 07:22:17;;;;;;;1.48;1.33;;;;;;;;;;5052006;28;20032;-66
2024/01/19 07:24:42;;;;;;;2.35;1.27;;;;;;;;;;5051591;28;20041;-67
2024/01/19 07:27:07;;;;;;;1.23;0.70;;;;;;;;;;5050263;28;20032;-68
2024/01/19 07:29:33;;;;;;;4.03;0.85;;;;;;;;;;5052701;28;20062;-67
2024/01/19 07:31:59;;;;;;;0.50;0.50;;;;;;;;;;5051555;28;20057;-65
2024/01/19 07:34:25;;;;;;;0.45;0.40;;;;;;;;;;5049993;28;20029;-65
2024/01/19 07:36:51;;;;;;;1.20;0.93;;;;;;;;;;5047448;28;20554;-65
2024/01/19 07:39:18;;;;;;;0.63;0.43;;;;;;;;;;5067342;28;20098;-66
2024/01/19 07:41:44;;;;;;;1.70;1.17;;;;;;;;;;5051387;28;20053;-65
2024/01/19 07:44:09;;;;;;;1.58;1.02;;;;;;;;;;5048845;28;20130;-65
2024/01/19 07:46:35;;;;;;;0.45;0.45;;;;;;;;;;5051374;28;20041;-65
2024/01/19 07:49:01;;;;;;;1.13;1.00;;;;;;;;;;5050919;28;20548;-67
2024/01/19 07:51:27;;;;;;;2.13;0.77;;;;;;;;;;5050857;28;20129;-65
2024/01/19 07:53:54;;;;;;;1.50;1.05;;;;;;;;;;5051148;28;20055;-66
2024/01/19 07:56:19;;;;;;;1.45;1.05;;;;;;;;;;5049345;28;20044;-64
2024/01/19 07:58:45;;;;;;;1.48;1.15;;;;;;;;;;5050362;28;20082;-67
2024/01/19 08:01:10;;;;;;;0.63;0.50;;;;;;;;;;5049924;28;20055;-67
2024/01/19 08:03:37;;;;;;;0.60;0.60;;;;;;;;;;5051178;28;20033;-67
2024/01/19 08:06:02;;;;;;;1.55;1.20;;;;;;;;;;5082080;28;20056;-67
2024/01/19 08:08:27;;;;;;;1.95;1.05;;;;;;;;;;5050264;28;20033;-67
2024/01/19 08:10:53;;;;;;;1.65;0.90;;;;;;;;;;5050875;28;20040;-67
2024/01/19 08:13:18;;;;;;;1.40;0.88;;;;;;;;;;5050338;28;20041;-67
2024/01/19 08:15:43;;;;;;;4.20;1.00;;;;;;;;;;5050931;28;20090;-67
2024/01/19 08:18:09;;;;;;;1.13;1.02;;;;;;;;;;5049949;28;20108;-66
2024/01/19 08:20:34;;;;;;;0.80;0.77;;;;;;;;;;5051627;28;20116;-69
2024/01/19 08:23:01;;;;;;;5.20;1.15;;;;;;;;;;5050498;28;20111;-66
2024/01/19 08:25:26;;;;;;;1.85;1.08;;;;;;;;;;5049948;28;20032;-68
2024/01/19 08:27:52;;;;;;;0.73;0.63;;;;;;;;;;5047766;28;20036;-68
2024/01/19 08:30:18;;;;;;;0.50;0.50;;;;;;;;;;5050841;28;20044;-69
2024/01/19 08:32:44;;;;;;;2.10;1.05;;;;;;;;;;5050260;28;20086;-68
2024/01/19 08:35:09;;;;;;;4.88;1.45;;;;;;;;;;5050055;28;20041;-68
2024/01/19 08:37:37;;;;;;;0.65;0.65;;;;;;;;;;5082759;28;20037;-69
2024/01/19 08:40:05;;;;;;;0.73;0.70;;;;;;;;;;5071819;28;20040;-68
2024/01/19 08:42:31;;;;;;;0.82;0.77;;;;;;;;;;5050039;28;20049;-69
2024/01/19 08:44:56;;;;;;;1.25;0.88;;;;;;;;;;5050357;28;20052;-68
2024/01/19 08:47:21;;;;;;;1.83;1.40;;;;;;;;;;5050748;28;20107;-68
2024/01/19 08:49:47;;;;;;;10.02;1.77;;;;;;;;;;5049928;28;20041;-68
2024/01/19 08:52:12;;;;;;;1.55;1.02;;;;;;;;;;5050679;28;20037;-66
2024/01/19 08:54:38;;;;;;;5.00;1.65;;;;;;;;;;5050303;28;20079;-66
2024/01/19 08:57:04;;;;;;;8.93;1.77;;;;;;;;;;5050353;28;20049;-66
2024/01/19 08:59:29;;;;;;;3.08;1.17;;;;;;;;;;5049601;28;20033;-66
2024/01/19 09:01:55;;;;;;;2.20;1.17;;;;;;;;;;5049732;28;20033;-66
2024/01/19 09:04:21;;;;;;;2.95;1.77;;;;;;;;;;5049941;28;20033;-68
2024/01/19 09:06:46;;;;;;;3.13;1.98;;;;;;;;;;5049215;28;20425;-67
2024/01/19 09:09:11;;;;;;;8.38;3.20;;;;;;;;;;5050228;28;20079;-66
2024/01/19 09:11:39;;;;;;;7.10;3.53;;;;;;;;;;5050505;28;20041;-66
2024/01/19 09:14:06;;;;;;;8.95;4.53;;;;;;;;;;5051411;28;20040;-65
2024/01/19 09:16:32;;;;;;;15.30;4.90;;;;;;;;;;5056704;28;20147;-66
2024/01/19 09:18:57;;;;;;;7.18;2.38;;;;;;;;;;5056498;28;20630;-66
2024/01/19 09:21:22;;;;;;;10.10;2.40;;;;;;;;;;5056565;28;20036;-67
2024/01/19 09:23:48;;;;;;;11.80;3.25;;;;;;;;;;5056645;28;20068;-67
2024/01/19 09:26:22;;;;;;;15.07;3.97;;;;;;;;;;5056634;28;20065;-67
2024/01/19 09:28:48;;;;;;;31.10;5.53;;;;;;;;;;5049174;28;20658;-69
2024/01/19 09:31:14;;;;;;;18.92;5.50;;;;;;;;;;5056522;28;20045;-68
2024/01/19 09:33:39;;;;;;;17.25;4.60;;;;;;;;;;5056703;28;20078;-68
2024/01/19 09:36:06;;;;;;;6.93;2.53;;;;;;;;;;5056076;28;20529;-67
2024/01/19 09:38:34;;;;;;;15.30;3.47;;;;;;;;;;5038120;28;20033;-67
2024/01/19 09:41:11;;;;;;;18.60;5.15;;;;;;;;;;5049996;28;20021;-67
2024/01/19 09:43:39;;;;;;;19.80;5.88;;;;;;;;;;5050700;28;20075;-68
2024/01/19 09:46:06;;;;;;;20.02;4.80;;;;;;;;;;5081688;28;20032;-68
2024/01/19 09:48:41;;;;;;;8.63;3.47;;;;;;;;;;5052390;28;20553;-68
2024/01/19 09:51:07;;;;;;;6.93;2.85;;;;;;;;;;5050341;28;20044;-67
2024/01/19 09:53:38;;;;;;;12.35;3.40;;;;;;;;;;5052692;28;20039;-68
2024/01/19 09:56:04;;;;;;;17.95;3.47;;;;;;;;;;5050093;28;20056;-68
2024/01/19 09:58:30;;;;;;;11.55;3.92;;;;;;;;;;5049644;28;20033;-69
2024/01/19 10:00:56;;;;;;;27.63;5.88;;;;;;;;;;5083946;28;20027;-67
2024/01/19 10:03:22;;;;;;;31.15;7.10;;;;;;;;;;5077535;28;20029;-67
2024/01/19 10:05:48;;;;;;;54.28;9.63;;;;;;;;;;5047851;28;20056;-68
2024/01/19 10:08:14;;;;;;;40.30;7.25;;;;;;;;;;5046787;28;20025;-68
2024/01/19 10:10:43;;;;;;;23.98;4.93;;;;;;;;;;5050614;28;20109;-68
2024/01/19 10:13:09;;;;;;;25.15;5.60;;;;;;;;;;5051407;28;20041;-67
2024/01/19 10:15:35;;;;;;;11.38;2.88;;;;;;;;;;5051164;28;20039;-68
2024/01/19 10:18:00;;;;;;;5.03;2.28;;;;;;;;;;5048338;28;20041;-66
2024/01/19 10:20:26;;;;;;;8.02;2.47;;;;;;;;;;5081815;28;20537;-68
2024/01/19 10:22:51;;;;;;;11.07;3.53;;;;;;;;;;5081583;28;20103;-67
2024/01/19 10:25:18;;;;;;;6.93;2.38;;;;;;;;;;5047282;28;20112;-67
2024/01/19 10:27:50;;;;;;;9.80;3.53;;;;;;;;;;5080298;28;20091;-69
2024/01/19 10:30:16;;;;;;;18.40;4.05;;;;;;;;;;5047269;28;20436;-67
2024/01/19 10:32:43;;;;;;;28.52;8.43;;;;;;;;;;5047005;28;20098;-68
2024/01/19 10:35:10;;;;;;;28.52;10.27;;;;;;;;;;5047111;28;20037;-69
2024/01/19 10:37:36;;;;;;;16.50;4.60;;;;;;;;;;5047944;28;20108;-68
2024/01/19 10:40:17;;;;;;;23.85;8.48;;;;;;;;;;5045898;28;20207;-67
2024/01/19 10:42:43;;;;;;;28.80;10.93;;;;;;;;;;5048592;28;20132;-68
2024/01/19 10:45:16;;;;;;;24.77;9.85;;;;;;;;;;5047478;28;20036;-67
2024/01/19 10:47:45;;;;;;;18.35;8.02;;;;;;;;;;5080173;28;20680;-68
2024/01/19 10:50:14;;;;;;;16.55;6.75;;;;;;;;;;5046824;28;20045;-68
2024/01/19 10:52:41;;;;;;;23.77;7.88;;;;;;;;;;5047610;28;20040;-67
2024/01/19 10:55:06;;;;;;;15.27;7.72;;;;;;;;;;5047002;28;20599;-67
2024/01/19 10:57:31;;;;;;;13.88;6.75;;;;;;;;;;5044976;28;20053;-68
2024/01/19 10:59:57;;;;;;;15.57;6.85;;;;;;;;;;5047028;28;20135;-69
2024/01/19 11:02:23;;;;;;;22.15;7.93;;;;;;;;;;5048076;28;20029;-68
2024/01/19 11:04:51;;;;;;;14.82;7.50;;;;;;;;;;5047221;28;20063;-67
2024/01/19 11:07:16;;;;;;;14.88;5.30;;;;;;;;;;5079307;28;20033;-67
2024/01/19 11:09:42;;;;;;;17.25;6.90;;;;;;;;;;5046790;28;20052;-68
2024/01/19 11:12:09;;;;;;;10.63;5.38;;;;;;;;;;5046501;28;20037;-69
2024/01/19 11:14:38;;;;;;;16.48;7.10;;;;;;;;;;5046263;28;20028;-67
2024/01/19 11:17:03;;;;;;;12.73;5.28;;;;;;;;;;5042501;28;20045;-67
2024/01/19 11:19:30;;;;;;;14.95;6.45;;;;;;;;;;5079059;28;20044;-67
2024/01/19 11:21:56;;;;;;;14.98;6.72;;;;;;;;;;5046861;28;20036;-68
2024/01/19 11:24:23;;;;;;;18.75;5.65;;;;;;;;;;5079646;28;20045;-68
2024/01/19 11:27:06;;;;;;;13.05;6.22;;;;;;;;;;5047502;28;20067;-68
2024/01/19 11:29:32;;;;;;;9.48;5.00;;;;;;;;;;5044999;28;20041;-68
2024/01/19 11:31:58;;;;;;;8.90;5.03;;;;;;;;;;5046443;28;20373;-67
2024/01/19 11:34:47;;;;;;;15.43;5.38;;;;;;;;;;5077608;28;20025;-68
2024/01/19 11:37:44;;;;;;;10.25;4.68;;;;;;;;;;5045115;28;20132;-69
2024/01/19 11:40:25;;;;;;;11.35;4.85;;;;;;;;;;5034026;28;20550;-67
2024/01/19 11:42:50;;;;;;;17.67;4.68;;;;;;;;;;5046740;28;20043;-69
2024/01/19 11:45:28;;;;;;;11.93;4.47;;;;;;;;;;5078164;28;20033;-67
2024/01/19 11:47:56;;;;;;;17.17;3.70;;;;;;;;;;5039296;28;20032;-69
2024/01/19 11:50:47;;;;;;;14.95;4.72;;;;;;;;;;5044990;28;20055;-68
2024/01/19 11:53:13;;;;;;;10.65;4.38;;;;;;;;;;5044958;28;20276;-67
2024/01/19 11:55:40;;;;;;;7.38;3.63;;;;;;;;;;5046836;28;20037;-69
2024/01/19 11:58:29;;;;;;;9.43;5.15;;;;;;;;;;5046627;28;20056;-69
2024/01/19 12:00:56;;;;;;;9.23;4.55;;;;;;;;;;5040463;28;20128;-68
2024/01/19 12:03:22;;;;;;;13.45;4.68;;;;;;;;;;5078496;28;20052;-68
2024/01/19 12:05:49;;;;;;;14.35;4.60;;;;;;;;;;5043952;28;20032;-67
2024/01/19 12:08:14;;;;;;;12.35;4.72;;;;;;;;;;5044825;28;20029;-68
2024/01/19 12:10:42;;;;;;;8.40;3.20;;;;;;;;;;5045126;28;20549;-67
2024/01/19 12:13:08;;;;;;;6.60;3.75;;;;;;;;;;5046397;28;20033;-67
2024/01/19 12:15:33;;;;;;;9.02;3.92;;;;;;;;;;5045655;28;20068;-68
2024/01/19 12:18:02;;;;;;;12.55;3.58;;;;;;;;;;5077507;28;20068;-67
2024/01/19 12:20:27;;;;;;;7.57;3.30;;;;;;;;;;5044708;28;20025;-69
2024/01/19 12:22:55;;;;;;;6.57;2.90;;;;;;;;;;5046579;28;20037;-67
2024/01/19 12:25:23;;;;;;;12.65;3.85;;;;;;;;;;5045745;28;20612;-67
2024/01/19 12:27:50;;;;;;;10.48;3.28;;;;;;;;;;5045253;28;20499;-67
2024/01/19 12:30:17;;;;;;;13.27;3.78;;;;;;;;;;5043390;28;20206;-67
2024/01/19 12:32:44;;;;;;;6.40;3.33;;;;;;;;;;5045632;28;20041;-68
2024/01/19 12:35:11;;;;;;;6.55;3.10;;;;;;;;;;5045253;28;20365;-67
2024/01/19 12:37:37;;;;;;;7.57;2.20;;;;;;;;;;5044431;28;20174;-68
2024/01/19 12:40:12;;;;;;;10.52;2.10;;;;;;;;;;5041021;28;20547;-69
2024/01/19 12:42:38;;;;;;;5.20;2.38;;;;;;;;;;5039270;28;20052;-67
2024/01/19 12:45:04;;;;;;;4.05;2.05;;;;;;;;;;5044833;28;20041;-67
2024/01/19 12:47:29;;;;;;;6.18;2.47;;;;;;;;;;5044765;28;20143;-67
2024/01/19 12:49:57;;;;;;;6.78;2.80;;;;;;;;;;5043875;28;20490;-70
2024/01/19 12:52:23;;;;;;;5.90;3.08;;;;;;;;;;5040771;28;20045;-68
2024/01/19 12:54:49;;;;;;;7.30;3.05;;;;;;;;;;5071995;28;20040;-68
2024/01/19 12:57:18;;;;;;;4.82;2.53;;;;;;;;;;5035387;28;20057;-68
2024/01/19 12:59:44;;;;;;;4.75;2.67;;;;;;;;;;5039880;28;20053;-68
2024/01/19 13:02:10;;;;;;;9.38;3.53;;;;;;;;;;5043598;28;20033;-67
2024/01/19 13:04:35;;;;;;;7.95;4.03;;;;;;;;;;5041126;28;20561;-68
2024/01/19 13:07:00;;;;;;;7.60;2.60;;;;;;;;;;5045538;28;20120;-67
2024/01/19 13:09:26;;;;;;;11.75;3.63;;;;;;;;;;5040129;28;20113;-68
2024/01/19 13:11:52;;;;;;;14.02;3.35;;;;;;;;;;5045004;28;20045;-67
2024/01/19 13:14:22;;;;;;;5.00;2.40;;;;;;;;;;5044043;28;20041;-67
2024/01/19 13:16:53;;;;;;;5.65;2.60;;;;;;;;;;5042551;28;20037;-68
2024/01/19 13:19:18;;;;;;;6.43;2.53;;;;;;;;;;5074151;28;20037;-67
2024/01/19 13:21:43;;;;;;;9.07;2.22;;;;;;;;;;5076499;28;20093;-68
2024/01/19 13:24:09;;;;;;;3.97;1.92;;;;;;;;;;5045178;28;20091;-67
2024/01/19 13:26:34;;;;;;;8.00;2.20;;;;;;;;;;5043988;28;20124;-67
2024/01/19 13:28:59;;;;;;;2.88;1.45;;;;;;;;;;5044418;28;20922;-68
2024/01/19 13:31:25;;;;;;;6.93;1.90;;;;;;;;;;5045304;28;20033;-68
2024/01/19 13:33:50;;;;;;;12.25;2.90;;;;;;;;;;5043419;28;20672;-68
2024/01/19 13:36:17;;;;;;;5.00;2.30;;;;;;;;;;5045424;28;20029;-67
2024/01/19 13:38:43;;;;;;;5.63;2.25;;;;;;;;;;5043984;28;20036;-68
2024/01/19 13:41:11;;;;;;;6.88;2.20;;;;;;;;;;5043232;28;20048;-68
2024/01/19 13:43:37;;;;;;;8.52;2.85;;;;;;;;;;5042397;28;20107;-67
2024/01/19 13:46:03;;;;;;;4.45;1.67;;;;;;;;;;5043993;28;20033;-67
2024/01/19 13:48:29;;;;;;;6.60;2.78;;;;;;;;;;5077009;28;20068;-67
2024/01/19 13:50:55;;;;;;;10.85;2.10;;;;;;;;;;5043388;28;20025;-69
2024/01/19 13:53:20;;;;;;;3.83;1.35;;;;;;;;;;5041690;28;20488;-68
2024/01/19 13:55:46;;;;;;;6.72;2.10;;;;;;;;;;5044969;28;20040;-67
2024/01/19 13:58:11;;;;;;;3.05;1.63;;;;;;;;;;5076628;28;20404;-67
2024/01/19 14:00:36;;;;;;;3.72;1.40;;;;;;;;;;5045259;28;20236;-68
2024/01/19 14:03:03;;;;;;;8.73;2.05;;;;;;;;;;5049043;28;20048;-69
2024/01/19 14:05:29;;;;;;;4.78;1.52;;;;;;;;;;5049316;28;20043;-68
2024/01/19 14:07:54;;;;;;;4.07;2.20;;;;;;;;;;5048776;28;20037;-68
2024/01/19 14:10:20;;;;;;;7.35;2.00;;;;;;;;;;5048261;28;20060;-69
2024/01/19 14:12:46;;;;;;;8.23;2.17;;;;;;;;;;5049128;28;20037;-68
2024/01/19 14:15:12;;;;;;;9.63;2.78;;;;;;;;;;5048923;28;20060;-68
2024/01/19 14:17:37;;;;;;;11.10;2.67;;;;;;;;;;5081267;28;20124;-68
2024/01/19 14:20:04;;;;;;;6.47;2.00;;;;;;;;;;5048021;28;20037;-68
2024/01/19 14:22:30;;;;;;;15.75;5.45;;;;;;;;;;5041934;28;20032;-67
2024/01/19 14:24:55;;;;;;;31.98;9.40;;;;;;;;;;5047236;28;20055;-67
2024/01/19 14:27:20;;;;;;;10.85;3.38;;;;;;;;;;5047955;28;20033;-69
2024/01/19 14:29:47;;;;;;;13.13;5.93;;;;;;;;;;5047555;28;20044;-67
2024/01/19 14:32:15;;;;;;;21.08;7.35;;;;;;;;;;5046201;28;20044;-67
2024/01/19 14:34:42;;;;;;;7.85;3.78;;;;;;;;;;5047317;28;20029;-68